Time;durP1;ratioP1;P1;durP2;ratioP2;P2;SDS_P1;SDS_P2;PMS_P1;PMS_P2;Temp;Humidity;BMP_temperature;BMP_pressure;BME280_temperature;BME280_humidity;BME280_pressure;Samples;Min_cycle;Max_cycle;Signal;HPM_P1;HPM_P2
2022/06/13 00:00:25;;;;;;;6.10;1.92;;;16.50;99.90;;;;;;5075996;28;20182;-81
2022/06/13 00:02:51;;;;;;;6.28;2.38;;;16.40;99.90;;;;;;5075091;28;20202;-87
2022/06/13 00:05:17;;;;;;;12.63;2.45;;;16.50;99.90;;;;;;5073007;28;20178;-82
2022/06/13 00:07:43;;;;;;;18.25;3.35;;;16.40;99.90;;;;;;5073860;28;20197;-83
2022/06/13 00:10:13;;;;;;;5.78;2.33;;;16.60;99.90;;;;;;5071828;28;20195;-93
2022/06/13 00:12:40;;;;;;;9.23;2.90;;;16.60;99.90;;;;;;5059941;28;20202;-95
2022/06/13 00:15:08;;;;;;;10.07;2.90;;;16.60;99.90;;;;;;5058634;28;20171;-92
2022/06/13 00:17:34;;;;;;;8.85;2.20;;;16.50;99.90;;;;;;5059371;28;20709;-93
2022/06/13 00:20:00;;;;;;;10.20;2.60;;;16.60;99.90;;;;;;5060068;28;20187;-82
2022/06/13 00:22:26;;;;;;;6.80;2.58;;;16.50;99.90;;;;;;5060090;28;20171;-94
2022/06/13 00:24:51;;;;;;;8.10;3.40;;;16.50;99.90;;;;;;5059576;28;20174;-93
2022/06/13 00:27:17;;;;;;;4.95;2.40;;;16.40;99.90;;;;;;5058989;28;20170;-91
2022/06/13 00:29:44;;;;;;;10.77;2.45;;;16.60;99.90;;;;;;5062488;28;20194;-94
2022/06/13 00:32:10;;;;;;;11.27;2.72;;;16.70;99.90;;;;;;5061881;28;20171;-81
2022/06/13 00:34:36;;;;;;;6.50;2.72;;;16.80;99.90;;;;;;5062589;28;20183;-83
2022/06/13 00:37:01;;;;;;;4.97;2.33;;;16.80;99.90;;;;;;5058740;28;20159;-81
2022/06/13 00:39:27;;;;;;;9.68;2.80;;;16.90;99.90;;;;;;5054356;28;20282;-80
2022/06/13 00:41:52;;;;;;;10.10;3.13;;;16.90;99.90;;;;;;5054624;28;20168;-81
2022/06/13 00:44:25;;;;;;;9.88;2.92;;;17.00;99.90;;;;;;5060489;28;20211;-84
2022/06/13 00:46:51;;;;;;;10.20;3.00;;;16.80;99.90;;;;;;5063213;28;20151;-91
2022/06/13 00:49:44;;;;;;;7.90;3.08;;;16.60;99.90;;;;;;5058435;28;20256;-87
2022/06/13 00:52:20;;;;;;;13.57;2.88;;;16.60;99.90;;;;;;5056667;28;20233;-92
2022/06/13 00:54:48;;;;;;;13.85;3.03;;;16.60;99.90;;;;;;5059587;28;20253;-81
2022/06/13 00:57:19;;;;;;;6.57;2.92;;;16.60;99.90;;;;;;5063373;28;20163;-82
2022/06/13 00:59:46;;;;;;;4.88;2.50;;;16.60;99.90;;;;;;5065126;28;20241;-81
2022/06/13 01:02:12;;;;;;;5.00;2.83;;;16.50;99.90;;;;;;5065290;28;20210;-82
2022/06/13 01:04:40;;;;;;;13.68;2.97;;;16.50;99.90;;;;;;5080205;28;20151;-81
2022/06/13 01:07:07;;;;;;;5.68;2.90;;;16.40;99.90;;;;;;5064513;28;20176;-81
2022/06/13 01:12:18;;;;;;;11.55;3.67;;;16.40;99.90;;;;;;5056627;28;20182;-82
2022/06/13 01:15:07;;;;;;;8.25;2.72;;;16.50;99.90;;;;;;5057233;28;20246;-82
2022/06/13 01:17:52;;;;;;;5.93;2.65;;;16.50;99.90;;;;;;5055513;28;20710;-82
2022/06/13 01:20:44;;;;;;;8.70;3.03;;;16.40;99.90;;;;;;5054359;28;20191;-81
2022/06/13 01:23:38;;;;;;;5.50;2.92;;;16.20;99.90;;;;;;5053948;28;20260;-86
2022/06/13 01:26:25;;;;;;;16.65;2.90;;;16.20;99.90;;;;;;5055568;28;20172;-95
2022/06/13 01:29:21;;;;;;;7.00;3.25;;;16.00;99.90;;;;;;5055292;28;20177;-81
2022/06/13 01:31:55;;;;;;;9.38;2.80;;;16.00;99.90;;;;;;5060109;28;20174;-95
2022/06/13 01:34:24;;;;;;;13.85;2.95;;;16.00;99.90;;;;;;5059152;28;20631;-94
2022/06/13 01:37:06;;;;;;;8.15;2.83;;;16.20;99.90;;;;;;5057075;28;20171;-93
2022/06/13 01:40:10;;;;;;;12.63;2.47;;;16.10;99.90;;;;;;5058842;28;20276;-93
2022/06/13 01:43:07;;;;;;;13.27;2.30;;;16.20;99.90;;;;;;5037735;28;20210;-87
2022/06/13 01:45:45;;;;;;;7.53;3.13;;;16.10;99.90;;;;;;5057123;28;20628;-93
2022/06/13 01:48:42;;;;;;;13.80;3.00;;;16.30;99.90;;;;;;5055996;28;20524;-92
2022/06/13 01:51:19;;;;;;;11.38;2.90;;;16.30;99.90;;;;;;5057334;28;20703;-95
2022/06/13 01:54:00;;;;;;;10.30;3.25;;;16.30;99.90;;;;;;5055337;28;20187;-95
2022/06/13 01:56:34;;;;;;;10.82;3.35;;;16.30;99.90;;;;;;5056503;28;20238;-94
2022/06/13 01:59:11;;;;;;;12.80;3.17;;;16.30;99.90;;;;;;5059614;28;20214;-91
2022/06/13 02:01:46;;;;;;;6.18;2.88;;;16.30;99.90;;;;;;5054841;28;20251;-81
2022/06/13 02:04:30;;;;;;;5.25;2.92;;;16.20;99.90;;;;;;5053891;28;20206;-81
2022/06/13 02:07:11;;;;;;;11.90;3.03;;;16.30;99.90;;;;;;5053259;28;20211;-81
2022/06/13 02:09:50;;;;;;;16.88;3.63;;;16.20;99.90;;;;;;5053933;28;20221;-81
2022/06/13 02:12:19;;;;;;;9.80;3.92;;;16.20;99.90;;;;;;5054418;28;20241;-81
2022/06/13 02:14:51;;;;;;;14.23;3.72;;;16.40;99.90;;;;;;5053710;28;20164;-90
2022/06/13 02:17:18;;;;;;;10.80;3.10;;;16.40;99.90;;;;;;5053902;28;20669;-82
2022/06/13 02:19:48;;;;;;;11.48;3.45;;;16.50;99.90;;;;;;5052015;28;20236;-81
2022/06/13 02:22:37;;;;;;;14.90;3.00;;;16.30;99.90;;;;;;5053593;28;20170;-90
2022/06/13 02:25:22;;;;;;;11.45;2.50;;;16.20;99.90;;;;;;5053483;28;20175;-81
2022/06/13 02:28:26;;;;;;;13.88;3.70;;;16.20;99.90;;;;;;5053584;28;20167;-81
2022/06/13 02:31:01;;;;;;;11.65;3.50;;;16.10;99.90;;;;;;4995849;28;20203;-94
2022/06/13 02:33:34;;;;;;;11.43;3.10;;;16.00;99.90;;;;;;5049386;28;20183;-80
2022/06/13 02:36:08;;;;;;;10.98;2.97;;;15.80;99.90;;;;;;5053047;28;20172;-92
2022/06/13 02:38:59;;;;;;;12.23;3.03;;;15.90;99.90;;;;;;5054085;28;20163;-81
2022/06/13 02:41:33;;;;;;;5.68;2.55;;;15.90;99.90;;;;;;5052752;28;20225;-93
2022/06/13 02:44:05;;;;;;;8.13;3.13;;;15.80;99.90;;;;;;5054034;28;20203;-95
2022/06/13 02:46:38;;;;;;;6.65;3.10;;;15.80;99.90;;;;;;5054082;28;20167;-83
2022/06/13 02:49:31;;;;;;;11.75;3.78;;;16.00;99.90;;;;;;5054215;28;20190;-95
2022/06/13 02:52:21;;;;;;;7.35;3.30;;;15.90;99.90;;;;;;5049759;28;20540;-91
2022/06/13 02:54:59;;;;;;;7.47;3.20;;;15.90;99.90;;;;;;5054110;28;20163;-91
2022/06/13 02:57:49;;;;;;;15.23;3.03;;;15.70;99.90;;;;;;5055574;28;20167;-91
2022/06/13 03:00:46;;;;;;;14.90;3.20;;;15.80;99.90;;;;;;5057162;28;20195;-82
2022/06/13 03:03:36;;;;;;;20.67;3.88;;;15.80;99.90;;;;;;5057175;28;20218;-96
2022/06/13 03:06:08;;;;;;;8.70;3.55;;;15.60;99.90;;;;;;5054872;28;20179;-93
2022/06/13 03:09:03;;;;;;;12.98;3.40;;;15.60;99.90;;;;;;5057841;28;20551;-81
2022/06/13 03:11:52;;;;;;;14.32;3.67;;;15.70;99.90;;;;;;5059183;28;20163;-86
2022/06/13 03:14:49;;;;;;;13.38;3.50;;;15.70;99.90;;;;;;5056431;28;20199;-82
2022/06/13 03:17:38;;;;;;;15.73;3.97;;;15.70;99.90;;;;;;5055917;28;20191;-83
2022/06/13 03:20:24;;;;;;;12.02;2.97;;;15.60;99.90;;;;;;5054149;28;20191;-82
2022/06/13 03:23:12;;;;;;;10.63;3.10;;;15.60;99.90;;;;;;5055042;28;20233;-80
2022/06/13 03:25:52;;;;;;;8.25;3.00;;;15.90;99.90;;;;;;5056157;28;20171;-81
2022/06/13 03:28:34;;;;;;;8.93;3.53;;;15.90;99.90;;;;;;5054016;28;20167;-80
2022/06/13 03:31:06;;;;;;;8.63;3.20;;;15.70;99.90;;;;;;5055003;28;20187;-82
2022/06/13 03:33:40;;;;;;;14.70;3.47;;;15.50;99.90;;;;;;5056148;28;20164;-92
2022/06/13 03:36:30;;;;;;;9.93;3.17;;;15.40;99.90;;;;;;5056229;28;20262;-94
2022/06/13 03:39:05;;;;;;;13.02;3.60;;;15.20;99.90;;;;;;5063310;28;20213;-81
2022/06/13 03:41:39;;;;;;;11.20;2.85;;;15.20;99.90;;;;;;5074902;28;20154;-84
2022/06/13 03:44:15;;;;;;;9.90;3.03;;;15.20;99.90;;;;;;5058938;28;20218;-93
2022/06/13 03:46:43;;;;;;;12.10;3.97;;;15.30;99.90;;;;;;5058883;28;20174;-95
2022/06/13 03:49:35;;;;;;;13.43;4.55;;;15.50;99.90;;;;;;5057945;28;20179;-95
2022/06/13 03:52:03;;;;;;;12.50;2.88;;;15.40;99.90;;;;;;5050870;28;20187;-95
2022/06/13 03:54:43;;;;;;;16.77;3.22;;;15.40;99.90;;;;;;5054788;28;20624;-95
2022/06/13 03:57:24;;;;;;;7.18;3.67;;;15.70;99.90;;;;;;5056130;28;20167;-92
2022/06/13 04:00:28;;;;;;;18.77;4.22;;;15.70;99.90;;;;;;5046603;28;20289;-88
2022/06/13 04:02:54;;;;;;;20.70;3.85;;;15.80;99.90;;;;;;5039952;28;20230;-81
2022/06/13 04:05:36;;;;;;;14.38;3.92;;;15.70;99.90;;;;;;5070036;28;20206;-85
2022/06/13 04:08:03;;;;;;;14.48;3.67;;;15.70;99.90;;;;;;5070716;28;20155;-81
2022/06/13 04:10:32;;;;;;;13.63;3.50;;;15.90;99.90;;;;;;5055026;28;20198;-92
2022/06/13 04:13:25;;;;;;;10.75;3.63;;;16.30;99.90;;;;;;5056271;28;20266;-83
2022/06/13 04:16:29;;;;;;;9.85;3.38;;;16.50;99.90;;;;;;5056135;28;20639;-93
2022/06/13 04:19:09;;;;;;;11.90;3.05;;;16.70;99.90;;;;;;5054863;28;20229;-83
2022/06/13 04:21:50;;;;;;;10.63;3.13;;;16.70;99.90;;;;;;5056909;28;20173;-95
2022/06/13 04:24:34;;;;;;;10.32;3.42;;;16.60;99.90;;;;;;5055551;28;20218;-82
2022/06/13 04:27:15;;;;;;;8.18;3.67;;;16.60;99.90;;;;;;5055744;28;20167;-91
2022/06/13 04:29:50;;;;;;;17.70;3.97;;;16.60;99.90;;;;;;5056761;28;20182;-95
2022/06/13 04:32:21;;;;;;;8.63;3.03;;;16.60;99.90;;;;;;5055620;28;20170;-92
2022/06/13 04:34:50;;;;;;;14.77;3.35;;;16.70;99.90;;;;;;5056463;28;20281;-91
2022/06/13 04:37:17;;;;;;;22.40;4.68;;;16.80;99.90;;;;;;5056574;28;20182;-94
2022/06/13 04:39:44;;;;;;;11.52;3.83;;;16.90;99.90;;;;;;5055701;28;20191;-82
2022/06/13 04:42:12;;;;;;;8.90;3.13;;;16.90;99.90;;;;;;5056344;28;20713;-92
2022/06/13 04:44:41;;;;;;;13.13;3.75;;;17.00;99.90;;;;;;5055860;28;20282;-91
2022/06/13 04:47:08;;;;;;;13.55;4.20;;;17.00;99.90;;;;;;5055532;28;20167;-93
2022/06/13 04:49:52;;;;;;;9.93;3.38;;;17.20;99.90;;;;;;5056638;28;20187;-82
2022/06/13 04:52:25;;;;;;;19.30;3.95;;;17.00;99.90;;;;;;5056808;28;20220;-84
2022/06/13 04:54:59;;;;;;;6.75;3.75;;;17.20;99.90;;;;;;5057176;28;20198;-93
2022/06/13 04:57:26;;;;;;;15.00;3.47;;;17.20;99.90;;;;;;5056338;28;20251;-88
2022/06/13 04:59:52;;;;;;;15.52;3.90;;;17.10;99.90;;;;;;5055248;28;20245;-96
2022/06/13 05:02:23;;;;;;;18.33;3.40;;;16.90;99.90;;;;;;5055565;28;20579;-81
2022/06/13 05:04:49;;;;;;;18.55;4.05;;;17.20;99.90;;;;;;5054649;28;20214;-85
2022/06/13 05:07:19;;;;;;;16.40;3.65;;;17.20;99.90;;;;;;5055455;28;20191;-96
2022/06/13 05:09:55;;;;;;;11.95;3.28;;;17.40;99.90;;;;;;5056370;28;20187;-96
2022/06/13 05:12:40;;;;;;;16.38;3.55;;;17.30;99.90;;;;;;5057113;28;20592;-82
2022/06/13 05:15:19;;;;;;;14.05;3.70;;;17.30;99.90;;;;;;5056479;28;20163;-88
2022/06/13 05:18:00;;;;;;;17.40;4.22;;;17.40;99.90;;;;;;5056354;28;20167;-90
2022/06/13 05:20:34;;;;;;;18.17;3.55;;;17.40;99.90;;;;;;5057081;28;20195;-94
2022/06/13 05:23:13;;;;;;;16.90;4.32;;;17.20;99.90;;;;;;5054113;28;20212;-86
2022/06/13 05:25:53;;;;;;;20.30;3.95;;;17.20;99.90;;;;;;5056526;28;20163;-92
2022/06/13 05:28:23;;;;;;;15.50;3.67;;;17.40;99.90;;;;;;5055693;28;20174;-83
2022/06/13 05:30:54;;;;;;;14.07;4.50;;;17.40;99.90;;;;;;5058804;28;20187;-93
2022/06/13 05:33:22;;;;;;;16.92;3.85;;;17.30;99.90;;;;;;5062574;28;20233;-80
2022/06/13 05:35:52;;;;;;;8.13;3.10;;;17.40;99.90;;;;;;5062969;28;20174;-88
2022/06/13 05:38:26;;;;;;;14.38;4.18;;;17.50;99.90;;;;;;5062509;28;20190;-96
2022/06/13 05:40:53;;;;;;;20.30;4.18;;;17.60;99.90;;;;;;5056680;28;20191;-93
2022/06/13 05:43:19;;;;;;;13.75;3.45;;;17.60;99.90;;;;;;5067450;28;20179;-88
2022/06/13 05:45:44;;;;;;;12.85;3.25;;;17.70;99.90;;;;;;5067323;28;20239;-91
2022/06/13 05:48:15;;;;;;;8.20;3.30;;;17.90;99.90;;;;;;5068614;28;20185;-87
2022/06/13 05:50:42;;;;;;;13.05;3.25;;;18.00;99.90;;;;;;5065586;28;20187;-93
2022/06/13 05:53:15;;;;;;;14.48;4.32;;;17.90;99.90;;;;;;5065196;28;20163;-86
2022/06/13 05:55:42;;;;;;;16.98;4.10;;;17.90;99.90;;;;;;5059938;28;20166;-92
2022/06/13 05:58:12;;;;;;;8.18;3.38;;;17.90;99.90;;;;;;5057745;28;20166;-88
2022/06/13 06:00:43;;;;;;;9.05;3.38;;;18.10;99.90;;;;;;5054560;28;20253;-81
2022/06/13 06:03:08;;;;;;;13.02;3.92;;;18.20;99.90;;;;;;5054723;28;20218;-83
2022/06/13 06:05:34;;;;;;;13.25;3.83;;;18.10;99.90;;;;;;5055198;28;20175;-92
2022/06/13 06:08:00;;;;;;;13.45;3.83;;;17.90;99.90;;;;;;5054833;28;20656;-89
2022/06/13 06:10:30;;;;;;;15.98;3.92;;;18.10;99.90;;;;;;5060315;28;20583;-85
2022/06/13 06:12:55;;;;;;;12.05;3.20;;;18.30;99.90;;;;;;5056533;28;20171;-87
2022/06/13 06:15:22;;;;;;;11.13;3.95;;;18.60;99.90;;;;;;5054125;28;20171;-82
2022/06/13 06:17:47;;;;;;;5.07;2.85;;;18.60;99.90;;;;;;5057812;28;20608;-84
2022/06/13 06:20:17;;;;;;;9.98;3.58;;;18.70;99.90;;;;;;5064150;28;20187;-85
2022/06/13 06:22:44;;;;;;;18.58;3.55;;;18.40;99.90;;;;;;5077454;28;20238;-84
2022/06/13 06:25:10;;;;;;;13.50;4.13;;;18.20;99.90;;;;;;5056257;28;20189;-84
2022/06/13 06:27:36;;;;;;;16.30;3.40;;;18.20;99.90;;;;;;5055144;28;20628;-84
2022/06/13 06:30:03;;;;;;;14.50;3.60;;;18.40;99.90;;;;;;5054185;28;20191;-84
2022/06/13 06:32:28;;;;;;;12.38;3.08;;;18.60;99.90;;;;;;5054032;28;20155;-79
2022/06/13 06:34:54;;;;;;;16.73;4.03;;;18.80;99.90;;;;;;5053938;28;20171;-85
2022/06/13 06:37:19;;;;;;;14.88;3.25;;;19.10;99.90;;;;;;5053615;28;20182;-83
2022/06/13 06:39:45;;;;;;;8.52;2.80;;;19.30;99.90;;;;;;5053891;28;20285;-86
2022/06/13 06:42:10;;;;;;;13.95;3.67;;;19.60;99.90;;;;;;5053934;28;20167;-86
2022/06/13 06:44:36;;;;;;;13.05;3.35;;;19.70;99.90;;;;;;5055393;28;20256;-89
2022/06/13 06:47:02;;;;;;;30.45;4.10;;;19.80;99.90;;;;;;5054646;28;20508;-90
2022/06/13 06:49:32;;;;;;;10.77;2.75;;;19.60;99.90;;;;;;5055452;28;20190;-88
2022/06/13 06:51:58;;;;;;;13.82;3.45;;;19.70;99.90;;;;;;5055925;28;20171;-84
2022/06/13 06:59:55;;;;;;;23.70;3.88;;;20.40;99.90;;;;;;5054240;28;20729;-84
2022/06/13 07:02:26;;;;;;;88.93;7.55;;;20.40;99.90;;;;;;5053621;28;20227;-80
2022/06/13 07:04:54;;;;;;;9.40;1.98;;;21.20;99.90;;;;;;5053285;28;20261;-79
2022/06/13 07:07:20;;;;;;;27.77;3.95;;;22.10;99.90;;;;;;5057018;28;20182;-79
2022/06/13 07:09:47;;;;;;;23.38;4.00;;;22.70;99.90;;;;;;5053606;28;20190;-79
2022/06/13 07:12:12;;;;;;;64.35;7.70;;;23.00;99.90;;;;;;5051249;28;20171;-86
2022/06/13 07:14:39;;;;;;;58.20;6.25;;;21.90;99.90;;;;;;5049878;28;20535;-84
2022/06/13 07:17:07;;;;;;;42.42;4.63;;;21.40;99.90;;;;;;5052222;28;20655;-83
2022/06/13 07:19:34;;;;;;;57.92;5.47;;;22.10;99.90;;;;;;5052724;28;20183;-83
2022/06/13 07:22:03;;;;;;;149.02;13.30;;;22.50;99.90;;;;;;5054324;28;20171;-82
2022/06/13 07:24:31;;;;;;;15.35;2.42;;;22.40;99.90;;;;;;5056395;28;20207;-86
2022/06/13 07:26:57;;;;;;;22.80;3.60;;;22.80;99.90;;;;;;5054463;28;20178;-86
2022/06/13 07:29:23;;;;;;;24.80;2.47;;;23.70;99.90;;;;;;5057558;28;20206;-92
2022/06/13 07:31:54;;;;;;;31.45;3.90;;;24.50;99.90;;;;;;5065676;28;20198;-92
2022/06/13 07:34:22;;;;;;;37.67;4.55;;;24.20;99.90;;;;;;5059073;28;20171;-90
2022/06/13 07:36:50;;;;;;;90.57;10.32;;;23.30;99.90;;;;;;5062287;28;20174;-85
2022/06/13 07:39:15;;;;;;;151.85;12.10;;;23.60;99.90;;;;;;5056308;28;20191;-90
2022/06/13 07:41:41;;;;;;;6.05;1.75;;;23.40;99.90;;;;;;5055835;28;20227;-88
2022/06/13 07:44:11;;;;;;;22.30;2.17;;;22.90;99.90;;;;;;5056037;28;20662;-90
2022/06/13 07:46:36;;;;;;;44.58;3.45;;;23.10;99.90;;;;;;5056900;28;20167;-87
2022/06/13 07:49:02;;;;;;;61.15;3.75;;;23.70;99.90;;;;;;5057539;28;20203;-88
2022/06/13 07:51:28;;;;;;;63.38;4.65;;;24.50;99.90;;;;;;5057308;28;20169;-89
2022/06/13 07:53:54;;;;;;;4.88;1.65;;;24.90;99.90;;;;;;5052329;28;20594;-88
2022/06/13 07:56:23;;;;;;;23.98;2.75;;;23.80;99.90;;;;;;5056791;28;20242;-88
2022/06/13 07:58:51;;;;;;;26.55;3.70;;;23.20;99.90;;;;;;5056948;28;20164;-89
2022/06/13 08:01:17;;;;;;;52.95;5.80;;;22.30;99.90;;;;;;5058021;28;20187;-91
2022/06/13 08:03:43;;;;;;;20.63;2.40;;;22.00;99.90;;;;;;5056641;28;20935;-89
2022/06/13 08:06:10;;;;;;;29.77;3.75;;;22.00;99.90;;;;;;5058622;28;20167;-86
2022/06/13 08:08:36;;;;;;;7.60;1.55;;;21.60;99.90;;;;;;5056793;28;20241;-89
2022/06/13 08:11:04;;;;;;;100.57;8.18;;;21.40;99.90;;;;;;5056805;28;20247;-84
2022/06/13 08:13:31;;;;;;;75.30;7.75;;;21.80;99.90;;;;;;5057794;28;20182;-88
2022/06/13 08:15:57;;;;;;;54.35;4.35;;;22.00;99.90;;;;;;5058758;28;20236;-93
2022/06/13 08:18:51;;;;;;;130.05;11.90;;;21.60;99.90;;;;;;5062395;28;20261;-86
2022/06/13 08:21:21;;;;;;;34.28;2.63;;;21.70;99.90;;;;;;5058394;28;20213;-82
2022/06/13 08:23:47;;;;;;;11.65;2.67;;;21.80;99.90;;;;;;5049820;28;20231;-91
2022/06/13 08:26:13;;;;;;;13.38;2.60;;;21.30;99.90;;;;;;5054960;28;20269;-82
2022/06/13 08:28:38;;;;;;;23.33;2.88;;;21.30;99.90;;;;;;5054519;28;20646;-86
2022/06/13 08:31:13;;;;;;;12.88;2.05;;;21.10;99.90;;;;;;5052850;28;20199;-86
2022/06/13 08:33:40;;;;;;;7.47;1.90;;;21.00;99.90;;;;;;5054291;28;20265;-85
2022/06/13 08:36:07;;;;;;;8.73;2.17;;;20.70;99.90;;;;;;5054007;28;20164;-80
2022/06/13 08:38:33;;;;;;;47.83;5.10;;;20.70;99.90;;;;;;5054387;28;20302;-80
2022/06/13 08:41:21;;;;;;;43.75;5.72;;;20.70;99.90;;;;;;5053573;28;20266;-77
2022/06/13 08:43:58;;;;;;;64.93;6.22;;;20.30;99.90;;;;;;5045264;28;20224;-77
2022/06/13 08:46:23;;;;;;;43.70;4.13;;;20.70;99.90;;;;;;5033566;28;20566;-77
2022/06/13 08:48:56;;;;;;;9.85;2.47;;;21.00;99.90;;;;;;5034433;28;20164;-78
2022/06/13 08:51:48;;;;;;;14.13;2.78;;;21.00;99.90;;;;;;5053746;28;20250;-80
2022/06/13 08:54:24;;;;;;;151.30;12.05;;;20.80;99.90;;;;;;5049508;28;20246;-79
2022/06/13 08:56:51;;;;;;;53.08;4.75;;;20.60;99.90;;;;;;5054622;28;20167;-80
2022/06/13 08:59:34;;;;;;;72.97;8.27;;;20.70;99.90;;;;;;5055702;28;20194;-79
2022/06/13 09:02:15;;;;;;;30.90;4.45;;;21.20;99.90;;;;;;5074689;28;20190;-76
2022/06/13 09:04:50;;;;;;;32.60;3.03;;;21.10;99.90;;;;;;5055966;28;20194;-81
2022/06/13 09:07:20;;;;;;;30.90;3.38;;;21.40;99.90;;;;;;5034401;28;20163;-80
2022/06/13 09:10:01;;;;;;;92.90;9.13;;;21.60;99.90;;;;;;5043158;28;20191;-78
2022/06/13 09:12:41;;;;;;;12.20;2.35;;;21.30;99.90;;;;;;5053883;28;20175;-79
2022/06/13 09:15:18;;;;;;;30.25;2.75;;;21.50;99.90;;;;;;5052902;28;20175;-81
2022/06/13 09:18:04;;;;;;;9.18;1.88;;;21.80;99.90;;;;;;5052556;28;20532;-79
2022/06/13 09:20:43;;;;;;;14.27;1.58;;;22.00;99.90;;;;;;5053434;28;20221;-79
2022/06/13 09:23:11;;;;;;;11.80;1.73;;;21.90;99.90;;;;;;5053509;28;20245;-79
2022/06/13 09:25:44;;;;;;;7.82;2.15;;;21.70;99.90;;;;;;5054229;28;20172;-80
2022/06/13 09:28:19;;;;;;;6.30;1.30;;;21.50;99.90;;;;;;5054098;28;20155;-79
2022/06/13 09:30:56;;;;;;;13.27;1.70;;;21.50;99.90;;;;;;5053093;28;20226;-79
2022/06/13 09:33:30;;;;;;;5.03;1.75;;;21.80;99.90;;;;;;5053576;28;20210;-78
2022/06/13 09:35:59;;;;;;;3.67;1.30;;;22.10;99.90;;;;;;5052252;28;20175;-79
2022/06/13 09:38:47;;;;;;;4.22;1.05;;;22.10;99.90;;;;;;5051999;28;21096;-80
2022/06/13 09:41:31;;;;;;;4.32;0.93;;;22.00;99.90;;;;;;5049847;28;20179;-78
2022/06/13 09:44:15;;;;;;;4.15;1.25;;;21.90;99.90;;;;;;5033591;28;20222;-79
2022/06/13 09:47:09;;;;;;;2.10;1.40;;;21.70;99.90;;;;;;5033402;28;20242;-80
2022/06/13 09:49:57;;;;;;;4.40;1.50;;;21.70;99.90;;;;;;5040150;28;20594;-78
2022/06/13 09:52:57;;;;;;;4.80;1.40;;;21.20;99.90;;;;;;5052282;28;20521;-78
2022/06/13 09:55:23;;;;;;;7.47;1.75;;;21.30;99.90;;;;;;5025008;28;20184;-78
2022/06/13 09:58:14;;;;;;;8.60;2.05;;;21.40;99.90;;;;;;5049308;28;20178;-78
2022/06/13 10:00:59;;;;;;;4.20;1.30;;;21.30;99.90;;;;;;5052324;28;20186;-83
2022/06/13 10:03:36;;;;;;;3.72;1.35;;;21.50;99.90;;;;;;5052629;28;20214;-88
2022/06/13 10:06:10;;;;;;;11.02;1.38;;;22.10;99.90;;;;;;5053732;28;20175;-91
2022/06/13 10:08:48;;;;;;;7.82;1.10;;;22.30;99.90;;;;;;5053126;28;20181;-80
2022/06/13 10:11:23;;;;;;;8.32;1.42;;;22.20;99.90;;;;;;5052424;28;20194;-83
2022/06/13 10:14:16;;;;;;;9.88;2.28;;;22.20;99.90;;;;;;5051259;28;20240;-92
2022/06/13 10:16:54;;;;;;;5.53;0.98;;;22.00;99.90;;;;;;5052731;28;20163;-83
2022/06/13 10:19:53;;;;;;;11.75;1.25;;;21.60;99.90;;;;;;5053237;28;20281;-87
2022/06/13 10:22:49;;;;;;;4.13;0.85;;;21.60;99.90;;;;;;5052355;28;20659;-86
2022/06/13 10:25:45;;;;;;;8.52;0.90;;;21.90;99.90;;;;;;5051079;28;20236;-81
2022/06/13 10:28:37;;;;;;;5.60;0.82;;;21.90;99.90;;;;;;5051243;28;20175;-84
2022/06/13 10:31:10;;;;;;;1.10;0.80;;;22.20;99.90;;;;;;5051356;28;20262;-80
2022/06/13 10:33:42;;;;;;;9.75;1.42;;;22.30;99.90;;;;;;5031885;28;20177;-82
2022/06/13 10:36:16;;;;;;;17.13;8.00;;;22.40;99.90;;;;;;5031211;28;20176;-82
2022/06/13 10:38:56;;;;;;;12.23;1.10;;;22.70;99.90;;;;;;5033385;28;20246;-79
2022/06/13 10:41:27;;;;;;;3.85;0.98;;;22.30;99.90;;;;;;5056010;28;20179;-84
2022/06/13 10:43:54;;;;;;;1.35;0.80;;;22.20;99.90;;;;;;5056304;28;20206;-82
2022/06/13 10:46:20;;;;;;;6.80;1.38;;;22.20;99.90;;;;;;5054004;28;20211;-83
2022/06/13 10:48:57;;;;;;;24.83;2.33;;;22.60;99.90;;;;;;5056461;28;20182;-85
2022/06/13 10:51:22;;;;;;;32.22;2.95;;;22.50;99.90;;;;;;5056778;28;20186;-77
2022/06/13 10:54:08;;;;;;;13.07;1.67;;;22.50;99.90;;;;;;5071358;28;20506;-85
2022/06/13 10:56:40;;;;;;;8.85;2.65;;;22.30;99.90;;;;;;5071324;28;20197;-77
2022/06/13 10:59:05;;;;;;;2.35;1.15;;;22.10;99.90;;;;;;5071632;28;20194;-77
2022/06/13 11:01:32;;;;;;;3.17;1.00;;;21.80;99.90;;;;;;5062232;28;20183;-76
2022/06/13 11:03:57;;;;;;;1.98;1.00;;;22.10;99.90;;;;;;5051818;28;20194;-78
2022/06/13 11:06:31;;;;;;;6.43;1.77;;;21.90;99.90;;;;;;5051138;28;20199;-80
2022/06/13 11:09:03;;;;;;;4.72;0.85;;;22.00;99.90;;;;;;5051323;28;21167;-79
2022/06/13 11:11:32;;;;;;;36.45;2.55;;;22.20;99.90;;;;;;5055676;28;20635;-78
2022/06/13 11:13:57;;;;;;;45.75;4.95;;;22.40;99.90;;;;;;5048356;28;20172;-80
2022/06/13 11:22:38;;;;;;;50.92;5.35;;;22.00;99.90;;;;;;5053913;28;20670;-77
2022/06/13 11:25:18;;;;;;;4.50;1.25;;;22.10;99.90;;;;;;5052580;28;20182;-88
2022/06/13 11:27:49;;;;;;;66.60;5.53;;;22.20;99.90;;;;;;5059220;28;20170;-92
2022/06/13 11:30:26;;;;;;;4.40;1.42;;;21.90;99.90;;;;;;5061907;28;20656;-91
2022/06/13 11:33:08;;;;;;;33.58;1.88;;;21.80;99.90;;;;;;5068022;28;20254;-91
2022/06/13 11:38:59;;;;;;;13.00;1.33;;;21.50;99.90;;;;;;5075490;28;20183;-90
2022/06/13 11:41:41;;;;;;;16.63;1.65;;;21.90;99.90;;;;;;5040057;28;20201;-91
2022/06/13 11:44:11;;;;;;;8.00;1.30;;;22.10;99.90;;;;;;5021420;28;20242;-91
2022/06/13 11:46:59;;;;;;;2.22;1.05;;;21.90;99.90;;;;;;5019820;28;20161;-90
2022/06/13 11:49:30;;;;;;;22.40;1.95;;;21.80;99.90;;;;;;5027462;28;20214;-90
2022/06/13 11:55:22;;;;;;;18.95;2.10;;;21.00;99.90;;;;;;5043230;28;20171;-91
2022/06/13 11:57:53;;;;;;;18.10;2.22;;;21.10;99.90;;;;;;5042099;28;20195;-90
2022/06/13 12:00:29;;;;;;;9.43;1.33;;;21.20;99.90;;;;;;5043629;28;20316;-90
2022/06/13 12:03:13;;;;;;;7.38;1.40;;;21.10;99.90;;;;;;5016767;28;20204;-90
2022/06/13 12:05:39;;;;;;;7.00;1.95;;;21.20;99.90;;;;;;5013579;28;20184;-91
2022/06/13 12:08:14;;;;;;;11.95;1.67;;;21.30;99.90;;;;;;5013052;28;20164;-89
2022/06/13 12:10:51;;;;;;;9.00;1.20;;;21.50;99.90;;;;;;5012449;28;20541;-89
2022/06/13 12:13:20;;;;;;;8.13;1.55;;;21.60;99.90;;;;;;5012871;28;20175;-87
2022/06/13 12:16:09;;;;;;;4.07;3.60;;;21.30;99.90;;;;;;5013018;28;20161;-90
2022/06/13 12:18:59;;;;;;;16.92;7.35;;;21.20;99.90;;;;;;5012714;28;20648;-91
2022/06/13 12:21:48;;;;;;;1.63;1.23;;;21.60;99.90;;;;;;5020036;28;20175;-84
2022/06/13 12:24:21;;;;;;;6.32;1.88;;;21.40;99.90;;;;;;5013838;28;20205;-88
2022/06/13 12:26:57;;;;;;;1.77;0.82;;;21.40;99.90;;;;;;5012894;28;20576;-86
2022/06/13 12:30:02;;;;;;;23.02;1.83;;;21.80;99.90;;;;;;5014262;28;20196;-88
2022/06/13 12:32:36;;;;;;;12.48;1.27;;;22.20;99.90;;;;;;5014986;28;20192;-88
2022/06/13 12:35:21;;;;;;;20.58;1.80;;;21.90;99.90;;;;;;5017268;28;20513;-88
2022/06/13 12:38:28;;;;;;;8.23;0.90;;;21.70;99.90;;;;;;5015979;28;20188;-87
2022/06/13 12:41:09;;;;;;;5.53;1.00;;;21.50;99.90;;;;;;4954609;28;20214;-87
2022/06/13 12:43:37;;;;;;;8.07;1.05;;;21.60;99.90;;;;;;5013717;28;20210;-86
2022/06/13 12:46:21;;;;;;;2.75;0.70;;;21.40;99.90;;;;;;5014142;28;20183;-86
2022/06/13 12:48:58;;;;;;;3.50;0.80;;;20.80;99.90;;;;;;5015237;28;20179;-86
2022/06/13 12:51:38;;;;;;;7.68;1.25;;;20.80;99.90;;;;;;5015051;28;20222;-87
2022/06/13 12:54:22;;;;;;;13.93;1.30;;;21.20;99.90;;;;;;5015396;28;20172;-87
2022/06/13 12:56:59;;;;;;;4.88;0.80;;;21.30;99.90;;;;;;5015416;28;20260;-86
2022/06/13 12:59:31;;;;;;;10.02;1.00;;;21.00;99.90;;;;;;5014907;28;20319;-86
2022/06/13 13:02:27;;;;;;;1.88;0.80;;;21.10;99.90;;;;;;5015456;28;20169;-86
2022/06/13 13:05:08;;;;;;;4.03;1.25;;;21.10;99.90;;;;;;5019654;28;20215;-86
2022/06/13 13:08:03;;;;;;;7.28;0.90;;;21.10;99.90;;;;;;5017805;28;20180;-86
2022/06/13 13:10:44;;;;;;;3.47;1.10;;;21.30;99.90;;;;;;5019724;28;21174;-87
2022/06/13 13:13:40;;;;;;;1.60;1.00;;;21.30;99.90;;;;;;5020416;28;20161;-87
2022/06/13 13:16:41;;;;;;;1.75;0.65;;;21.30;99.90;;;;;;5020685;28;20184;-87
2022/06/13 13:19:29;;;;;;;7.43;1.02;;;20.90;99.90;;;;;;5017710;28;20219;-86
2022/06/13 13:22:12;;;;;;;1.83;0.75;;;21.10;99.90;;;;;;5019049;28;20629;-87
2022/06/13 13:24:56;;;;;;;1.45;0.60;;;21.30;99.90;;;;;;5017506;28;20216;-88
2022/06/13 13:27:24;;;;;;;1.10;1.00;;;21.50;99.90;;;;;;5018297;28;20185;-87
2022/06/13 13:30:24;;;;;;;7.85;0.75;;;21.50;99.90;;;;;;5014899;28;20207;-88
2022/06/13 13:33:21;;;;;;;2.35;0.73;;;21.30;99.90;;;;;;5019574;28;20176;-88
2022/06/13 13:36:35;;;;;;;3.03;0.90;;;21.20;99.90;;;;;;5032515;28;20256;-87
2022/06/13 13:39:16;;;;;;;0.90;0.82;;;20.70;99.90;;;;;;5042531;28;20215;-86
2022/06/13 13:42:00;;;;;;;2.28;0.60;;;20.80;99.90;;;;;;5031741;28;20174;-87
2022/06/13 13:44:46;;;;;;;7.43;0.82;;;20.70;99.90;;;;;;5023323;28;20306;-87